Buford, OH (45110)

11:53 AM EST on January 31, 2015 (GMT -0500)
Hillsboro | Change Station
CLOSE
Current Station
Personal Weather Station
Location: Hillsboro, OH
Elevation: 1102 ft
Nearby Weather Stations

Elev 1102 ft 39.21 °N, 83.60 °W | Updated 3 seconds ago

Mostly Cloudy
Mostly Cloudy
34.0 °F
Feels Like 27 °F
N
8.1
Wind Variable Wind from South
Gusts 8.1 mph

Today
High -- | Low -- °F
--% Chance of Precip.
Yesterday
High -- | Low -- °F
Precip. -- in
7:42 AM 5:53 PM
Waxing Gibbous, 90% visible
Pressure 30.46 in
Visibility 10.0 miles
Clouds Overcast 9000 ft
Windchill 27 °F
Dew Point 10 °F
Humidity 36%
Rainfall 0.00 in
Snow Depth Not available.
UV 1 out of 12
Pollen .10 out of 12
Air Quality Not available.
Flu Activity Not available.
METAR KILN 311554Z AUTO 21011KT 10SM OVC090 M02/M08 A3036 RMK AO2 SLP314 T10221078

More Conditions Fewer Conditions

Pressure 30.46 in
Visibility 10.0 miles
Clouds Overcast 9000 ft
Windchill 27 °F
Dew Point 10 °F
Humidity 36%
Rainfall 0.00 in
Snow Depth Not available.
UV 1 out of 12
Pollen .10 out of 12
Air Quality Not available.
Flu Activity Not available.
METAR KILN 311554Z AUTO 21011KT 10SM OVC090 M02/M08 A3036 RMK AO2 SLP314 T10221078

More Conditions Fewer Conditions

10-Day Weather Forecast

Almanac

Astronomy

Jan. 31, 2015 Rise Set
Actual Time
Civil Twilight
Nautical Twilight
Astronomical Twilight
Moon
Length of Visible Light
Length of Day
Tomorrow will be .
, % of the Moon is Illuminated

Today's Extremes

State Highs State Lows

Community

WunderPhotos

Upload Photos

1,792,105 photos uploaded!

WunderBlogs® & News

Nearby

Air Quality

  Air Quality AQ Index Pollutant
Not available.

Snow Depth

Station Depth Elevation

Earthquake Activity

City Distance Mag. Time & Date
Minimum magnitude displayed is 2.5.

Coastal Water Temperatures

Place Temperature

Nearby Weather Stations